Time;durP1;ratioP1;P1;durP2;ratioP2;P2;SDS_P1;SDS_P2;PMS_P1;PMS_P2;Temp;Humidity;BMP_temperature;BMP_pressure;BME280_temperature;BME280_humidity;BME280_pressure;Samples;Min_cycle;Max_cycle;Signal;HPM_P1;HPM_P2
2023/12/30 00:00:47;;;;;;;28.48;15.52;;;;;;;;;;6268135;28;20095;-73
2023/12/30 00:03:50;;;;;;;33.15;14.55;;;;;;;;;;6268404;28;20112;-75
2023/12/30 00:06:52;;;;;;;46.85;22.65;;;;;;;;;;6282379;28;20526;-74
2023/12/30 00:09:54;;;;;;;44.55;21.30;;;;;;;;;;6270365;28;20040;-75
2023/12/30 00:12:56;;;;;;;38.80;19.08;;;;;;;;;;6275304;28;20126;-75
2023/12/30 00:15:59;;;;;;;31.60;19.02;;;;;;;;;;6275875;28;20033;-75
2023/12/30 00:19:01;;;;;;;25.25;15.98;;;;;;;;;;6286771;28;20060;-75
2023/12/30 00:22:04;;;;;;;34.78;17.13;;;;;;;;;;6291985;28;20040;-75
2023/12/30 00:25:07;;;;;;;27.67;16.35;;;;;;;;;;6296065;28;20147;-75
2023/12/30 00:28:09;;;;;;;30.63;14.65;;;;;;;;;;6275234;28;20041;-74
2023/12/30 00:31:29;;;;;;;28.25;16.77;;;;;;;;;;6274919;28;20118;-74
2023/12/30 00:34:34;;;;;;;28.95;20.05;;;;;;;;;;6249229;28;20044;-75
2023/12/30 00:37:37;;;;;;;24.67;13.27;;;;;;;;;;6289253;28;20044;-76
2023/12/30 00:40:39;;;;;;;25.58;13.32;;;;;;;;;;6282218;28;20526;-75
2023/12/30 00:43:41;;;;;;;24.63;14.48;;;;;;;;;;6287168;28;20052;-75
2023/12/30 00:46:44;;;;;;;23.13;13.10;;;;;;;;;;6242284;28;20044;-75
2023/12/30 00:49:46;;;;;;;25.38;15.20;;;;;;;;;;6289759;28;20061;-75
2023/12/30 00:52:49;;;;;;;21.13;12.93;;;;;;;;;;6265362;28;20147;-75
2023/12/30 00:55:53;;;;;;;22.73;15.48;;;;;;;;;;6289260;28;20048;-75
2023/12/30 00:58:56;;;;;;;40.78;21.42;;;;;;;;;;6290688;28;20713;-76
2023/12/30 01:01:58;;;;;;;40.33;18.70;;;;;;;;;;6286643;28;20056;-75
2023/12/30 01:05:00;;;;;;;32.03;17.77;;;;;;;;;;6261948;28;20097;-75
2023/12/30 01:08:03;;;;;;;27.15;15.55;;;;;;;;;;6265718;28;20041;-75
2023/12/30 01:11:06;;;;;;;29.35;16.83;;;;;;;;;;6274724;28;20074;-75
2023/12/30 01:14:08;;;;;;;32.08;16.85;;;;;;;;;;6268818;28;20375;-76
2023/12/30 01:17:10;;;;;;;23.65;13.88;;;;;;;;;;6273525;28;20071;-75
2023/12/30 01:20:13;;;;;;;23.52;14.18;;;;;;;;;;6266050;28;20528;-75
2023/12/30 01:23:16;;;;;;;22.67;13.30;;;;;;;;;;6263827;28;20049;-75
2023/12/30 01:26:18;;;;;;;24.02;13.45;;;;;;;;;;6235350;28;20293;-75
2023/12/30 01:29:20;;;;;;;25.23;14.00;;;;;;;;;;6284502;28;20053;-75
2023/12/30 01:32:23;;;;;;;34.15;15.82;;;;;;;;;;6243694;28;20466;-75
2023/12/30 01:35:25;;;;;;;21.48;12.25;;;;;;;;;;6274778;28;20139;-75
2023/12/30 01:38:27;;;;;;;24.17;11.82;;;;;;;;;;6290417;28;20528;-75
2023/12/30 01:41:31;;;;;;;17.55;11.20;;;;;;;;;;6284349;28;20166;-75
2023/12/30 01:44:35;;;;;;;18.45;10.88;;;;;;;;;;6264365;28;20056;-75
2023/12/30 01:47:38;;;;;;;21.45;11.07;;;;;;;;;;6256300;28;20048;-75
2023/12/30 01:50:40;;;;;;;19.63;11.18;;;;;;;;;;6270695;28;20540;-75
2023/12/30 01:53:44;;;;;;;17.30;10.40;;;;;;;;;;6285624;28;20051;-75
2023/12/30 01:56:48;;;;;;;21.92;10.73;;;;;;;;;;6275035;28;20048;-75
2023/12/30 01:59:51;;;;;;;21.05;10.30;;;;;;;;;;6271733;28;20067;-75
2023/12/30 02:02:53;;;;;;;16.70;9.00;;;;;;;;;;6284700;28;20798;-75
2023/12/30 02:05:55;;;;;;;24.85;12.02;;;;;;;;;;6272110;28;20733;-76
2023/12/30 02:08:58;;;;;;;18.50;9.43;;;;;;;;;;6292925;28;20051;-75
2023/12/30 02:12:03;;;;;;;20.60;11.48;;;;;;;;;;6268653;28;20049;-75
2023/12/30 02:15:21;;;;;;;21.08;11.82;;;;;;;;;;6270942;28;20040;-75
2023/12/30 02:18:23;;;;;;;19.58;11.38;;;;;;;;;;6269193;28;20052;-75
2023/12/30 02:21:26;;;;;;;16.95;11.25;;;;;;;;;;6284861;28;20739;-75
2023/12/30 02:24:28;;;;;;;21.13;13.02;;;;;;;;;;6277887;28;20048;-76
2023/12/30 02:27:30;;;;;;;23.17;11.85;;;;;;;;;;6285720;28;20055;-75
2023/12/30 02:30:32;;;;;;;19.70;11.50;;;;;;;;;;6262906;28;20430;-75
2023/12/30 02:33:34;;;;;;;20.75;12.68;;;;;;;;;;6306118;28;20047;-75
2023/12/30 02:36:37;;;;;;;20.20;11.15;;;;;;;;;;6290276;28;20048;-75
2023/12/30 02:39:39;;;;;;;23.92;11.63;;;;;;;;;;6281134;28;20048;-75
2023/12/30 02:42:41;;;;;;;21.75;11.00;;;;;;;;;;6287438;28;20044;-75
2023/12/30 02:45:43;;;;;;;18.52;12.43;;;;;;;;;;6275753;28;20042;-75
2023/12/30 02:48:45;;;;;;;18.92;11.77;;;;;;;;;;6284821;28;20083;-75
2023/12/30 02:51:48;;;;;;;18.83;11.07;;;;;;;;;;6291471;28;20044;-75
2023/12/30 02:54:50;;;;;;;19.77;11.48;;;;;;;;;;6288381;28;20509;-75
2023/12/30 02:57:52;;;;;;;26.90;14.05;;;;;;;;;;6289537;28;20041;-75
2023/12/30 03:00:55;;;;;;;22.75;15.88;;;;;;;;;;6267436;28;20052;-75
2023/12/30 03:03:59;;;;;;;28.70;14.32;;;;;;;;;;6298220;28;20044;-75
2023/12/30 03:07:01;;;;;;;22.95;14.05;;;;;;;;;;6254656;28;20039;-75
2023/12/30 03:10:05;;;;;;;24.20;13.05;;;;;;;;;;6275920;28;20037;-75
2023/12/30 03:13:07;;;;;;;23.20;16.70;;;;;;;;;;6258042;28;20657;-75
2023/12/30 03:16:16;;;;;;;22.38;14.23;;;;;;;;;;6293345;28;20052;-75
2023/12/30 03:19:19;;;;;;;30.95;17.02;;;;;;;;;;6285282;28;20044;-75
2023/12/30 03:22:21;;;;;;;28.05;15.15;;;;;;;;;;6268589;28;20544;-75
2023/12/30 03:25:23;;;;;;;22.50;12.85;;;;;;;;;;6287499;28;20055;-75
2023/12/30 03:28:26;;;;;;;29.77;13.45;;;;;;;;;;6278967;28;20075;-76
2023/12/30 03:31:28;;;;;;;30.85;13.85;;;;;;;;;;6268382;28;20141;-75
2023/12/30 03:34:32;;;;;;;23.73;13.88;;;;;;;;;;6272479;28;20071;-75
2023/12/30 03:37:35;;;;;;;18.80;11.82;;;;;;;;;;6293934;28;20724;-75
2023/12/30 03:40:39;;;;;;;21.15;11.45;;;;;;;;;;6270279;28;20041;-75
2023/12/30 03:43:42;;;;;;;27.15;14.25;;;;;;;;;;6293976;28;20059;-75
2023/12/30 03:46:44;;;;;;;20.88;10.95;;;;;;;;;;6295180;28;20040;-75
2023/12/30 03:49:46;;;;;;;20.27;10.23;;;;;;;;;;6292984;28;20040;-75
2023/12/30 03:52:50;;;;;;;22.30;12.32;;;;;;;;;;6276182;28;20044;-75
2023/12/30 03:55:55;;;;;;;20.70;13.20;;;;;;;;;;6276809;28;20566;-75
2023/12/30 03:58:59;;;;;;;21.48;10.73;;;;;;;;;;6290930;28;20073;-75
2023/12/30 04:02:01;;;;;;;25.48;13.50;;;;;;;;;;6266614;28;20916;-75
2023/12/30 04:05:05;;;;;;;24.38;12.23;;;;;;;;;;6273853;28;20108;-75
2023/12/30 04:08:08;;;;;;;46.08;21.98;;;;;;;;;;6293875;28;20052;-75
2023/12/30 04:11:11;;;;;;;33.42;16.67;;;;;;;;;;6291401;28;20096;-75
2023/12/30 04:14:13;;;;;;;98.50;42.42;;;;;;;;;;6292275;28;20049;-75
2023/12/30 04:17:15;;;;;;;40.92;21.13;;;;;;;;;;6259143;28;20059;-75
2023/12/30 04:20:18;;;;;;;32.92;14.90;;;;;;;;;;6243972;28;20541;-75
2023/12/30 04:23:20;;;;;;;22.95;13.23;;;;;;;;;;6279818;28;20080;-75
2023/12/30 04:26:23;;;;;;;21.23;12.82;;;;;;;;;;6309869;28;20127;-75
2023/12/30 04:29:26;;;;;;;23.23;13.85;;;;;;;;;;6256247;28;20041;-74
2023/12/30 04:32:28;;;;;;;23.98;13.85;;;;;;;;;;6298433;28;20096;-75
2023/12/30 04:35:33;;;;;;;20.60;11.60;;;;;;;;;;6316135;28;20048;-75
2023/12/30 04:38:35;;;;;;;20.50;10.77;;;;;;;;;;6269933;28;20059;-75
2023/12/30 04:41:38;;;;;;;17.48;10.55;;;;;;;;;;6298934;28;20852;-74
2023/12/30 04:44:41;;;;;;;17.40;11.07;;;;;;;;;;6269654;28;20563;-75
2023/12/30 04:47:44;;;;;;;17.33;10.75;;;;;;;;;;6324418;28;20059;-75
2023/12/30 04:50:48;;;;;;;19.48;10.65;;;;;;;;;;6269327;28;20043;-73
2023/12/30 04:53:50;;;;;;;15.20;9.82;;;;;;;;;;6340984;28;20037;-73
2023/12/30 04:56:52;;;;;;;21.88;12.55;;;;;;;;;;6273115;28;20143;-74
2023/12/30 04:59:54;;;;;;;17.45;10.63;;;;;;;;;;6271124;28;20052;-73
2023/12/30 05:02:56;;;;;;;20.60;12.45;;;;;;;;;;6274242;28;20462;-74
2023/12/30 05:05:58;;;;;;;24.85;14.88;;;;;;;;;;6277013;28;20129;-74
2023/12/30 05:09:01;;;;;;;18.90;12.80;;;;;;;;;;6275218;28;20103;-74
2023/12/30 05:12:04;;;;;;;19.45;9.63;;;;;;;;;;6263444;28;20036;-74
2023/12/30 05:15:07;;;;;;;19.35;11.18;;;;;;;;;;6268522;28;20564;-74
2023/12/30 05:18:11;;;;;;;16.88;10.95;;;;;;;;;;6271619;28;20183;-73
2023/12/30 05:21:14;;;;;;;20.85;9.93;;;;;;;;;;6277593;28;20071;-74
2023/12/30 05:24:17;;;;;;;16.58;10.40;;;;;;;;;;6300323;28;20044;-74
2023/12/30 05:27:22;;;;;;;28.10;14.95;;;;;;;;;;6290696;28;20055;-74
2023/12/30 05:30:24;;;;;;;58.78;27.65;;;;;;;;;;6275794;28;20048;-74
2023/12/30 05:33:27;;;;;;;38.50;17.52;;;;;;;;;;6259342;28;20063;-74
2023/12/30 05:36:30;;;;;;;37.05;18.30;;;;;;;;;;6259213;28;20044;-75
2023/12/30 05:39:34;;;;;;;24.63;15.02;;;;;;;;;;6274093;28;20052;-75
2023/12/30 05:42:36;;;;;;;53.20;27.88;;;;;;;;;;6291255;28;20044;-75
2023/12/30 05:45:40;;;;;;;22.77;14.00;;;;;;;;;;6294742;28;20036;-74
2023/12/30 05:48:48;;;;;;;24.10;12.98;;;;;;;;;;6297323;28;20051;-75
2023/12/30 05:51:50;;;;;;;20.92;11.82;;;;;;;;;;6290029;28;20072;-75
2023/12/30 05:54:53;;;;;;;26.33;15.15;;;;;;;;;;6256390;28;20044;-74
2023/12/30 05:57:55;;;;;;;17.98;12.60;;;;;;;;;;6285672;28;20583;-75
2023/12/30 06:00:58;;;;;;;17.67;10.52;;;;;;;;;;6267727;28;20098;-75
2023/12/30 06:04:01;;;;;;;22.08;10.13;;;;;;;;;;6249399;28;20058;-74
2023/12/30 06:07:03;;;;;;;20.05;12.88;;;;;;;;;;6271682;28;20119;-74
2023/12/30 06:10:07;;;;;;;19.30;10.95;;;;;;;;;;6274214;28;20037;-74
2023/12/30 06:13:09;;;;;;;26.73;14.38;;;;;;;;;;6296446;28;20051;-74
2023/12/30 06:16:12;;;;;;;25.05;15.02;;;;;;;;;;6270737;28;20461;-74
2023/12/30 06:19:16;;;;;;;20.85;12.93;;;;;;;;;;6273450;28;20077;-74
2023/12/30 06:22:20;;;;;;;25.00;13.30;;;;;;;;;;6294992;28;20040;-73
2023/12/30 06:25:23;;;;;;;25.95;12.00;;;;;;;;;;6270447;28;20120;-74
2023/12/30 06:28:26;;;;;;;19.42;11.90;;;;;;;;;;6292334;28;20112;-74
2023/12/30 06:31:28;;;;;;;22.52;12.32;;;;;;;;;;6274349;28;20045;-75
2023/12/30 06:34:31;;;;;;;21.10;12.25;;;;;;;;;;6269029;28;20060;-75
2023/12/30 06:37:35;;;;;;;38.67;19.60;;;;;;;;;;6273123;28;20056;-75
2023/12/30 06:40:37;;;;;;;32.25;17.90;;;;;;;;;;6289836;28;20079;-74
2023/12/30 06:43:39;;;;;;;54.70;26.92;;;;;;;;;;6273483;28;20051;-75
2023/12/30 06:46:42;;;;;;;74.47;34.90;;;;;;;;;;6292672;28;20045;-74
2023/12/30 06:49:44;;;;;;;39.08;21.60;;;;;;;;;;6281360;28;20045;-74
2023/12/30 06:52:47;;;;;;;32.58;17.48;;;;;;;;;;6262182;28;20052;-74
2023/12/30 06:55:49;;;;;;;23.30;14.18;;;;;;;;;;6285750;28;20055;-74
2023/12/30 06:58:52;;;;;;;27.58;14.35;;;;;;;;;;6289295;28;20538;-73
2023/12/30 07:01:54;;;;;;;28.60;15.73;;;;;;;;;;6266442;28;20036;-73
2023/12/30 07:04:56;;;;;;;57.53;30.13;;;;;;;;;;6291873;28;20059;-74
2023/12/30 07:07:59;;;;;;;67.97;34.63;;;;;;;;;;6292071;28;20652;-74
2023/12/30 07:11:01;;;;;;;78.45;42.40;;;;;;;;;;6293533;28;20041;-74
2023/12/30 07:14:04;;;;;;;51.00;32.25;;;;;;;;;;6272728;28;20122;-75
2023/12/30 07:17:07;;;;;;;136.82;68.82;;;;;;;;;;6285519;28;20033;-74
2023/12/30 07:20:09;;;;;;;59.42;32.92;;;;;;;;;;6272223;28;20434;-73
2023/12/30 07:23:11;;;;;;;71.20;34.17;;;;;;;;;;6287377;28;20094;-73
2023/12/30 07:26:17;;;;;;;73.03;38.88;;;;;;;;;;6275076;28;20529;-74
2023/12/30 07:29:21;;;;;;;85.85;40.83;;;;;;;;;;6267995;28;20171;-74
2023/12/30 07:32:25;;;;;;;82.53;43.50;;;;;;;;;;6278012;28;20131;-74
2023/12/30 07:35:28;;;;;;;61.03;29.58;;;;;;;;;;6258717;28;20587;-73
2023/12/30 07:38:30;;;;;;;59.70;30.08;;;;;;;;;;6250868;28;20887;-72
2023/12/30 07:41:33;;;;;;;56.20;32.38;;;;;;;;;;6268847;28;20568;-74
2023/12/30 07:44:37;;;;;;;75.20;44.05;;;;;;;;;;6321977;28;20351;-76
2023/12/30 07:47:40;;;;;;;78.53;44.90;;;;;;;;;;6276698;28;20057;-75
2023/12/30 07:50:44;;;;;;;70.75;37.88;;;;;;;;;;6276856;28;20044;-74
2023/12/30 07:53:46;;;;;;;89.78;51.45;;;;;;;;;;6269432;28;20063;-75
2023/12/30 07:56:49;;;;;;;120.28;53.00;;;;;;;;;;6290783;28;20478;-74
2023/12/30 07:59:51;;;;;;;115.90;57.33;;;;;;;;;;6252826;28;20446;-74
2023/12/30 08:02:53;;;;;;;94.90;46.13;;;;;;;;;;6294093;28;21020;-74
2023/12/30 08:06:01;;;;;;;93.68;48.55;;;;;;;;;;6288833;28;20063;-74
2023/12/30 08:09:07;;;;;;;94.47;49.47;;;;;;;;;;6273911;28;20099;-74
2023/12/30 08:12:10;;;;;;;73.43;34.33;;;;;;;;;;6288507;28;20040;-73
2023/12/30 08:15:12;;;;;;;59.03;32.08;;;;;;;;;;6268664;28;20048;-73
2023/12/30 08:18:14;;;;;;;51.22;28.80;;;;;;;;;;6277974;28;20055;-74
2023/12/30 08:21:16;;;;;;;82.45;42.72;;;;;;;;;;6277766;28;20037;-74
2023/12/30 08:24:21;;;;;;;57.42;25.02;;;;;;;;;;6261047;28;20917;-74
2023/12/30 08:27:23;;;;;;;50.08;26.27;;;;;;;;;;6245802;28;20047;-73
2023/12/30 08:30:25;;;;;;;44.50;23.00;;;;;;;;;;6288353;28;20036;-74
2023/12/30 08:33:27;;;;;;;76.57;40.47;;;;;;;;;;6266548;28;20041;-74
2023/12/30 08:36:30;;;;;;;46.05;23.15;;;;;;;;;;6291201;28;20067;-73
2023/12/30 08:39:32;;;;;;;41.13;22.10;;;;;;;;;;6280760;28;20048;-73
2023/12/30 08:42:35;;;;;;;47.83;24.65;;;;;;;;;;6269401;28;20131;-74
2023/12/30 08:45:38;;;;;;;37.28;23.70;;;;;;;;;;6282868;28;20051;-74
2023/12/30 08:48:40;;;;;;;57.03;32.58;;;;;;;;;;6262350;28;21548;-73
2023/12/30 08:51:42;;;;;;;54.13;29.70;;;;;;;;;;6263688;28;20102;-73
2023/12/30 08:54:45;;;;;;;41.28;24.40;;;;;;;;;;6284004;28;20039;-74
2023/12/30 08:57:48;;;;;;;49.28;26.30;;;;;;;;;;6284844;28;20059;-74
2023/12/30 09:00:51;;;;;;;39.35;23.52;;;;;;;;;;6282661;28;20033;-74
2023/12/30 09:03:54;;;;;;;40.92;23.13;;;;;;;;;;6290046;28;20536;-74
2023/12/30 09:07:00;;;;;;;36.60;21.23;;;;;;;;;;6283923;28;20052;-74
2023/12/30 09:10:02;;;;;;;32.28;19.15;;;;;;;;;;6249322;28;20537;-74
2023/12/30 09:13:05;;;;;;;40.30;22.65;;;;;;;;;;6277964;28;20128;-73
2023/12/30 09:16:09;;;;;;;45.42;24.17;;;;;;;;;;6267290;28;20051;-73
2023/12/30 09:19:12;;;;;;;45.88;28.38;;;;;;;;;;6285346;28;20512;-73
2023/12/30 09:22:16;;;;;;;42.22;27.05;;;;;;;;;;6286028;28;20507;-74
2023/12/30 09:25:18;;;;;;;48.17;30.50;;;;;;;;;;6249406;28;20041;-73
2023/12/30 09:28:20;;;;;;;35.33;24.80;;;;;;;;;;6267520;28;20038;-72
2023/12/30 09:31:24;;;;;;;36.75;22.80;;;;;;;;;;6294241;28;20477;-74
2023/12/30 09:34:29;;;;;;;34.90;22.02;;;;;;;;;;6280514;28;20048;-73
2023/12/30 09:37:46;;;;;;;36.17;22.15;;;;;;;;;;6276187;28;20055;-72
2023/12/30 09:40:48;;;;;;;42.25;24.05;;;;;;;;;;6271724;28;20423;-72
2023/12/30 09:43:51;;;;;;;37.10;21.45;;;;;;;;;;6264326;28;20040;-74
2023/12/30 09:46:55;;;;;;;32.20;20.23;;;;;;;;;;6278469;28;20633;-76
2023/12/30 09:49:58;;;;;;;29.60;20.98;;;;;;;;;;6289615;28;20570;-74
2023/12/30 09:53:00;;;;;;;30.73;17.77;;;;;;;;;;6265027;28;20039;-76
2023/12/30 09:56:04;;;;;;;30.92;17.75;;;;;;;;;;6308933;28;20707;-77
2023/12/30 09:59:07;;;;;;;35.90;21.20;;;;;;;;;;6292758;28;20738;-77
2023/12/30 10:02:10;;;;;;;29.65;19.23;;;;;;;;;;6273468;28;20056;-77
2023/12/30 10:05:12;;;;;;;34.95;19.63;;;;;;;;;;6289910;28;20239;-77
2023/12/30 10:08:15;;;;;;;35.97;20.63;;;;;;;;;;6280242;28;20044;-77
2023/12/30 10:11:17;;;;;;;21.17;12.45;;;;;;;;;;6268237;28;20048;-78
2023/12/30 10:14:19;;;;;;;30.02;17.80;;;;;;;;;;6257205;28;20514;-77
2023/12/30 10:17:21;;;;;;;35.95;22.73;;;;;;;;;;6287809;28;20250;-77
2023/12/30 10:20:29;;;;;;;23.67;14.95;;;;;;;;;;6274191;28;20598;-77
2023/12/30 10:23:32;;;;;;;19.88;14.05;;;;;;;;;;6249686;28;20041;-77
2023/12/30 10:26:39;;;;;;;30.35;18.00;;;;;;;;;;6284748;28;20052;-77
2023/12/30 10:29:43;;;;;;;26.00;18.27;;;;;;;;;;6249264;28;20147;-77
2023/12/30 10:33:13;;;;;;;29.48;19.00;;;;;;;;;;6273762;28;20177;-76
2023/12/30 10:36:17;;;;;;;28.52;17.85;;;;;;;;;;6275212;28;20032;-76
2023/12/30 10:39:34;;;;;;;30.95;20.33;;;;;;;;;;6297065;28;20045;-76
2023/12/30 10:42:39;;;;;;;28.90;17.38;;;;;;;;;;6280039;28;20033;-77
2023/12/30 10:45:41;;;;;;;29.77;17.52;;;;;;;;;;6292069;28;20069;-76
2023/12/30 10:49:03;;;;;;;26.08;16.83;;;;;;;;;;6290704;28;20040;-76
2023/12/30 10:52:09;;;;;;;21.42;13.82;;;;;;;;;;6277818;28;20058;-77
2023/12/30 10:55:15;;;;;;;23.77;16.67;;;;;;;;;;6251255;28;20190;-76
2023/12/30 10:58:19;;;;;;;27.25;17.70;;;;;;;;;;6257193;28;20948;-75
2023/12/30 11:01:22;;;;;;;26.92;18.20;;;;;;;;;;6293604;28;20043;-76
2023/12/30 11:04:26;;;;;;;29.10;19.08;;;;;;;;;;6288382;28;20773;-76
2023/12/30 11:07:28;;;;;;;28.95;17.08;;;;;;;;;;6242851;28;20526;-76
2023/12/30 11:10:32;;;;;;;29.40;18.90;;;;;;;;;;6269815;28;20277;-76
2023/12/30 11:13:35;;;;;;;21.65;14.98;;;;;;;;;;6287266;28;20074;-76
2023/12/30 11:16:40;;;;;;;18.73;11.00;;;;;;;;;;6267284;28;20075;-78
2023/12/30 11:19:42;;;;;;;32.92;15.50;;;;;;;;;;6268436;28;20064;-75
2023/12/30 11:22:47;;;;;;;23.77;13.35;;;;;;;;;;6277877;28;20057;-75
2023/12/30 11:25:49;;;;;;;21.95;12.90;;;;;;;;;;6290518;28;20048;-76
2023/12/30 11:28:51;;;;;;;21.98;14.45;;;;;;;;;;6279783;28;20584;-76
2023/12/30 11:31:56;;;;;;;21.13;14.07;;;;;;;;;;6259565;28;20537;-76
2023/12/30 11:34:59;;;;;;;26.77;16.60;;;;;;;;;;6277611;28;20041;-75
2023/12/30 11:38:08;;;;;;;18.73;12.55;;;;;;;;;;6284048;28;20141;-76
2023/12/30 11:41:11;;;;;;;21.40;13.00;;;;;;;;;;6297877;28;20113;-75
2023/12/30 11:44:16;;;;;;;22.80;13.88;;;;;;;;;;6265621;28;20876;-75
2023/12/30 11:47:25;;;;;;;;;;;;;;;;;;6302268;28;20067;-76
2023/12/30 11:50:28;;;;;;;19.75;13.70;;;;;;;;;;6286577;28;20636;-76
2023/12/30 11:53:34;;;;;;;19.83;10.63;;;;;;;;;;6288573;28;20527;-75
2023/12/30 11:56:43;;;;;;;15.82;10.90;;;;;;;;;;6280148;28;20055;-76
2023/12/30 11:59:47;;;;;;;24.05;13.07;;;;;;;;;;6278173;28;20110;-76
2023/12/30 12:02:51;;;;;;;20.73;12.23;;;;;;;;;;6267675;28;20036;-74
2023/12/30 12:05:56;;;;;;;19.75;12.10;;;;;;;;;;6270446;28;20055;-76
2023/12/30 12:09:01;;;;;;;17.35;9.82;;;;;;;;;;6301395;28;20134;-76
2023/12/30 12:12:04;;;;;;;17.45;10.60;;;;;;;;;;6266530;28;20037;-77
2023/12/30 12:15:08;;;;;;;16.15;10.63;;;;;;;;;;6280394;28;20040;-76
2023/12/30 12:18:10;;;;;;;18.60;12.15;;;;;;;;;;6246695;28;20057;-77
2023/12/30 12:21:13;;;;;;;22.85;12.57;;;;;;;;;;6287900;28;20161;-76
2023/12/30 12:24:15;;;;;;;21.55;13.15;;;;;;;;;;6249354;28;20051;-77
2023/12/30 12:27:21;;;;;;;17.48;9.80;;;;;;;;;;6268140;28;20547;-76
2023/12/30 12:30:24;;;;;;;14.25;9.18;;;;;;;;;;6273818;28;20071;-76
2023/12/30 12:33:28;;;;;;;19.70;9.98;;;;;;;;;;6299262;28;20039;-76
2023/12/30 12:36:31;;;;;;;17.95;13.20;;;;;;;;;;6288699;28;20102;-76
2023/12/30 12:39:33;;;;;;;12.27;8.57;;;;;;;;;;6302712;28;20063;-76
2023/12/30 12:42:35;;;;;;;18.95;12.32;;;;;;;;;;6253493;28;20106;-75
2023/12/30 12:45:41;;;;;;;21.33;12.05;;;;;;;;;;6275347;28;20063;-76
2023/12/30 12:48:43;;;;;;;19.30;12.20;;;;;;;;;;6262897;28;20055;-76
2023/12/30 12:51:45;;;;;;;17.13;9.77;;;;;;;;;;6281411;28;20055;-76
2023/12/30 12:54:48;;;;;;;14.90;10.98;;;;;;;;;;6281684;28;20730;-76
2023/12/30 12:57:51;;;;;;;16.33;10.57;;;;;;;;;;6292102;28;20134;-75
2023/12/30 13:00:54;;;;;;;20.08;11.45;;;;;;;;;;6274193;28;20075;-75
2023/12/30 13:03:58;;;;;;;14.32;10.13;;;;;;;;;;6277321;28;20586;-75
2023/12/30 13:07:01;;;;;;;18.08;10.32;;;;;;;;;;6272225;28;20199;-75
2023/12/30 13:13:24;;;;;;;20.15;9.30;;;;;;;;;;6308934;28;20036;-75
2023/12/30 13:16:26;;;;;;;16.52;9.93;;;;;;;;;;6255236;28;20053;-75
2023/12/30 13:19:28;;;;;;;17.17;10.95;;;;;;;;;;6285172;28;20046;-75
2023/12/30 13:22:32;;;;;;;16.90;10.52;;;;;;;;;;6293519;28;20131;-75
2023/12/30 13:25:34;;;;;;;23.63;13.05;;;;;;;;;;6291616;28;20749;-75
2023/12/30 13:28:38;;;;;;;21.73;13.32;;;;;;;;;;6272176;28;20045;-75
2023/12/30 13:31:43;;;;;;;20.50;13.02;;;;;;;;;;6276771;28;20051;-75
2023/12/30 13:34:51;;;;;;;53.60;26.00;;;;;;;;;;6235444;28;20435;-75
2023/12/30 13:37:55;;;;;;;48.83;23.35;;;;;;;;;;6292575;28;20051;-77
2023/12/30 13:41:02;;;;;;;49.97;23.17;;;;;;;;;;6287107;28;20025;-78
2023/12/30 13:44:08;;;;;;;49.00;23.35;;;;;;;;;;6289232;28;20040;-77
2023/12/30 13:48:24;;;;;;;35.25;17.73;;;;;;;;;;6273210;28;20076;-76
2023/12/30 13:50:49;;;;;;;22.88;13.65;;;;;;;;;;6263848;28;20053;-76
2023/12/30 13:53:59;;;;;;;44.33;18.73;;;;;;;;;;6277202;28;20717;-77
2023/12/30 13:57:12;;;;;;;112.70;45.92;;;;;;;;;;6303619;28;20101;-77
2023/12/30 14:00:18;;;;;;;59.17;26.38;;;;;;;;;;6292628;28;20048;-77
2023/12/30 14:03:23;;;;;;;30.50;18.40;;;;;;;;;;6271543;28;20060;-77
2023/12/30 14:06:32;;;;;;;19.65;13.07;;;;;;;;;;6278445;28;20045;-76
2023/12/30 14:09:44;;;;;;;168.73;75.35;;;;;;;;;;6279046;28;20191;-76
2023/12/30 14:12:48;;;;;;;489.48;189.40;;;;;;;;;;6294024;28;20529;-76
2023/12/30 14:15:51;;;;;;;243.50;105.47;;;;;;;;;;6275764;28;20051;-76
2023/12/30 14:18:54;;;;;;;68.03;34.42;;;;;;;;;;6263452;28;20081;-75
2023/12/30 14:21:59;;;;;;;150.27;67.75;;;;;;;;;;6287618;28;20040;-76
2023/12/30 14:25:04;;;;;;;182.90;90.18;;;;;;;;;;6272448;28;20056;-76
2023/12/30 14:28:08;;;;;;;72.25;37.22;;;;;;;;;;6279361;28;20406;-76
2023/12/30 14:31:15;;;;;;;67.63;34.78;;;;;;;;;;6272118;28;20055;-76
2023/12/30 14:34:18;;;;;;;40.20;22.65;;;;;;;;;;6258031;28;20221;-75
2023/12/30 14:37:21;;;;;;;34.78;21.00;;;;;;;;;;6279529;28;20041;-76
2023/12/30 14:40:23;;;;;;;60.75;34.03;;;;;;;;;;6302359;28;20045;-76
2023/12/30 14:43:26;;;;;;;34.28;18.35;;;;;;;;;;6271623;28;20537;-77
2023/12/30 14:46:31;;;;;;;;;;;;;;;;;;6293177;28;20808;-76
2023/12/30 14:49:33;;;;;;;54.97;29.77;;;;;;;;;;6279948;28;20410;-76
2023/12/30 14:52:36;;;;;;;63.83;31.65;;;;;;;;;;6274499;28;20134;-77
2023/12/30 14:55:40;;;;;;;67.68;33.95;;;;;;;;;;6279786;28;20037;-76
2023/12/30 14:58:42;;;;;;;71.70;36.80;;;;;;;;;;6276421;28;20052;-76
2023/12/30 15:01:44;;;;;;;53.22;26.05;;;;;;;;;;6263991;28;20044;-76
2023/12/30 15:04:50;;;;;;;51.97;27.50;;;;;;;;;;6278452;28;20412;-75
2023/12/30 15:07:53;;;;;;;83.80;43.10;;;;;;;;;;6276855;28;20045;-75
2023/12/30 15:11:00;;;;;;;79.72;38.60;;;;;;;;;;6288132;28;20041;-76
2023/12/30 15:14:05;;;;;;;61.38;30.92;;;;;;;;;;6286309;28;20044;-76
2023/12/30 15:17:07;;;;;;;58.03;31.63;;;;;;;;;;6252678;28;20445;-76
2023/12/30 15:20:09;;;;;;;50.33;33.35;;;;;;;;;;6260974;28;20040;-75
2023/12/30 15:23:11;;;;;;;44.50;29.15;;;;;;;;;;6288714;28;20085;-75
2023/12/30 15:26:14;;;;;;;35.10;22.67;;;;;;;;;;6263996;28;20045;-75
2023/12/30 15:29:18;;;;;;;31.35;18.60;;;;;;;;;;6274439;28;20045;-76
2023/12/30 15:32:20;;;;;;;31.10;18.30;;;;;;;;;;6254236;28;20041;-76
2023/12/30 15:35:23;;;;;;;32.45;18.40;;;;;;;;;;6260471;28;20040;-74
2023/12/30 15:38:26;;;;;;;31.20;21.48;;;;;;;;;;6293192;28;20766;-72
2023/12/30 15:41:31;;;;;;;33.22;20.33;;;;;;;;;;6283151;28;20612;-73
2023/12/30 15:44:36;;;;;;;31.98;17.35;;;;;;;;;;6278201;28;20656;-73
2023/12/30 15:47:40;;;;;;;36.42;18.45;;;;;;;;;;6256993;28;20113;-72
2023/12/30 15:50:42;;;;;;;40.03;19.75;;;;;;;;;;6285028;28;20060;-73
2023/12/30 15:53:44;;;;;;;35.55;19.10;;;;;;;;;;6285339;28;20024;-72
2023/12/30 15:56:47;;;;;;;32.17;18.55;;;;;;;;;;6266783;28;20128;-74
2023/12/30 15:59:49;;;;;;;34.65;16.75;;;;;;;;;;6263594;28;20856;-73
2023/12/30 16:02:51;;;;;;;37.58;19.70;;;;;;;;;;6278188;28;20865;-72
2023/12/30 16:05:53;;;;;;;72.20;41.42;;;;;;;;;;6269380;28;20044;-72
2023/12/30 16:08:56;;;;;;;46.78;28.88;;;;;;;;;;6278275;28;20071;-74
2023/12/30 16:11:59;;;;;;;37.90;22.02;;;;;;;;;;6284431;28;20052;-73
2023/12/30 16:15:01;;;;;;;33.33;21.02;;;;;;;;;;6246453;28;20537;-72
2023/12/30 16:18:04;;;;;;;44.65;24.20;;;;;;;;;;6273774;28;20633;-73
2023/12/30 16:21:07;;;;;;;40.00;24.85;;;;;;;;;;6281602;28;20105;-72
2023/12/30 16:24:10;;;;;;;31.83;22.85;;;;;;;;;;6285761;28;20045;-72
2023/12/30 16:27:14;;;;;;;28.75;20.30;;;;;;;;;;6265165;28;20056;-72
2023/12/30 16:30:16;;;;;;;29.40;20.27;;;;;;;;;;6262824;28;20604;-72
2023/12/30 16:33:19;;;;;;;35.28;24.15;;;;;;;;;;6280554;28;20032;-72
2023/12/30 16:36:24;;;;;;;34.67;23.08;;;;;;;;;;6293030;28;20052;-73
2023/12/30 16:39:26;;;;;;;45.38;30.23;;;;;;;;;;6278711;28;20052;-74
2023/12/30 16:42:29;;;;;;;55.88;35.38;;;;;;;;;;6282850;28;20048;-73
2023/12/30 16:45:31;;;;;;;65.50;42.13;;;;;;;;;;6277071;28;20054;-74
2023/12/30 16:48:33;;;;;;;80.35;50.90;;;;;;;;;;6266814;28;20139;-74
2023/12/30 16:51:39;;;;;;;52.00;35.13;;;;;;;;;;6277579;28;20048;-73
2023/12/30 16:54:42;;;;;;;55.33;37.65;;;;;;;;;;6275047;28;20036;-74
2023/12/30 16:57:44;;;;;;;30.17;18.30;;;;;;;;;;6285225;28;20040;-72
2023/12/30 17:00:50;;;;;;;38.97;25.60;;;;;;;;;;6282409;28;20829;-73
2023/12/30 17:03:57;;;;;;;41.72;27.98;;;;;;;;;;6274698;28;20794;-73
2023/12/30 17:06:59;;;;;;;39.42;26.88;;;;;;;;;;6264436;28;20488;-72
2023/12/30 17:10:01;;;;;;;52.70;33.80;;;;;;;;;;6242579;28;20855;-74
2023/12/30 17:13:03;;;;;;;67.43;40.05;;;;;;;;;;6276872;28;20051;-73
2023/12/30 17:16:06;;;;;;;45.95;27.08;;;;;;;;;;6275686;28;20927;-72
2023/12/30 17:19:09;;;;;;;53.40;33.70;;;;;;;;;;6265101;28;20549;-72
2023/12/30 17:22:12;;;;;;;20.40;15.05;;;;;;;;;;6263726;28;20049;-74
2023/12/30 17:25:15;;;;;;;16.15;9.68;;;;;;;;;;6268150;28;20044;-74
2023/12/30 17:28:17;;;;;;;17.25;9.52;;;;;;;;;;6285056;28;20128;-74
2023/12/30 17:31:19;;;;;;;20.25;12.00;;;;;;;;;;6278379;28;20055;-72
2023/12/30 17:34:24;;;;;;;16.83;11.77;;;;;;;;;;6301214;28;20143;-73
2023/12/30 17:37:26;;;;;;;19.02;13.60;;;;;;;;;;6269896;28;20823;-72
2023/12/30 17:40:30;;;;;;;25.25;15.20;;;;;;;;;;6283203;28;20654;-73
2023/12/30 17:43:35;;;;;;;23.00;14.98;;;;;;;;;;6286875;28;20029;-73
2023/12/30 17:46:37;;;;;;;32.15;19.27;;;;;;;;;;6283242;28;20049;-72
2023/12/30 17:49:39;;;;;;;42.80;26.35;;;;;;;;;;6264228;28;20036;-72
2023/12/30 17:52:41;;;;;;;39.30;22.83;;;;;;;;;;6272705;28;20047;-73